createdAt,value
2023-01-29T00:02:22.797Z,89.46
2023-01-29T00:04:49.352Z,89.66
2023-01-29T00:07:15.854Z,89.18
2023-01-29T00:09:42.448Z,89.29
2023-01-29T00:12:09.012Z,88.47
2023-01-29T00:14:35.538Z,89.18
2023-01-29T00:17:02.244Z,89.15
2023-01-29T00:19:28.918Z,89.07
2023-01-29T00:21:55.479Z,89.16
2023-01-29T00:24:22.069Z,88.68
2023-01-29T00:26:48.634Z,89.76
2023-01-29T00:29:15.222Z,89.81
2023-01-29T00:31:44.917Z,89.33
2023-01-29T00:34:11.521Z,89.21
2023-01-29T00:36:37.977Z,89.89
2023-01-29T00:39:04.495Z,89.33
2023-01-29T00:41:32.472Z,89.12
2023-01-29T00:43:59.304Z,88.74
2023-01-29T00:46:25.969Z,89.22
2023-01-29T00:48:52.491Z,90.09
2023-01-29T00:51:19.240Z,90.36
2023-01-29T00:53:45.764Z,89.29
2023-01-29T00:56:12.297Z,90.01
2023-01-29T00:58:38.804Z,89.83
2023-01-29T01:01:05.743Z,89.54
2023-01-29T01:03:32.351Z,91.02
2023-01-29T01:06:06.216Z,90.56
2023-01-29T01:08:32.780Z,90.90
2023-01-29T01:11:00.804Z,90.62
2023-01-29T01:13:27.289Z,89.93
2023-01-29T01:15:53.884Z,90.01
2023-01-29T01:18:20.462Z,89.43
2023-01-29T01:20:46.989Z,89.51
2023-01-29T01:23:13.550Z,89.76
2023-01-29T01:25:40.147Z,90.42
2023-01-29T01:28:06.664Z,89.61
2023-01-29T01:30:33.303Z,89.37
2023-01-29T01:32:59.844Z,89.27
2023-01-29T01:35:26.361Z,89.38
2023-01-29T01:37:53.000Z,89.51
2023-01-29T01:40:20.945Z,89.99
2023-01-29T01:42:52.021Z,89.45
2023-01-29T01:45:25.446Z,89.74
2023-01-29T01:47:58.522Z,89.63
2023-01-29T01:50:35.353Z,89.61
2023-01-29T01:53:08.354Z,89.85
2023-01-29T01:55:35.432Z,90.25
2023-01-29T01:58:09.095Z,90.43
2023-01-29T02:00:35.829Z,89.40
2023-01-29T02:03:02.495Z,87.55
2023-01-29T02:05:30.371Z,87.84
2023-01-29T02:07:57.305Z,87.71
2023-01-29T02:10:23.910Z,87.06
2023-01-29T02:12:50.451Z,87.51
2023-01-29T02:15:17.014Z,87.19
2023-01-29T02:17:43.607Z,86.75
2023-01-29T02:20:23.512Z,87.40
2023-01-29T02:22:58.995Z,86.70
2023-01-29T02:26:01.075Z,86.54
2023-01-29T02:28:31.047Z,87.58
2023-01-29T02:31:09.738Z,87.99
2023-01-29T02:33:42.068Z,87.73
2023-01-29T02:36:18.099Z,87.85
2023-01-29T02:39:03.735Z,88.00
2023-01-29T02:41:35.069Z,87.87
2023-01-29T02:44:20.282Z,88.00
2023-01-29T02:46:49.763Z,88.63
2023-01-29T02:49:38.093Z,88.13
2023-01-29T02:52:18.073Z,87.82
2023-01-29T02:54:45.414Z,87.82
2023-01-29T02:57:20.779Z,87.08
2023-01-29T02:59:52.733Z,87.61
2023-01-29T03:02:22.078Z,87.67
2023-01-29T03:04:51.431Z,87.90
2023-01-29T03:07:20.720Z,88.12
2023-01-29T03:09:48.955Z,87.99
2023-01-29T03:12:26.516Z,88.00
2023-01-29T03:14:53.106Z,88.50
2023-01-29T03:17:21.292Z,88.68
2023-01-29T03:19:47.851Z,88.77
2023-01-29T03:22:15.561Z,88.20
2023-01-29T03:24:46.824Z,88.13
2023-01-29T03:27:13.607Z,88.51
2023-01-29T03:29:40.213Z,88.16
2023-01-29T03:32:06.940Z,88.39
2023-01-29T03:34:38.452Z,88.96
2023-01-29T03:37:18.238Z,88.76
2023-01-29T03:39:44.802Z,88.15
2023-01-29T03:42:19.121Z,89.25
2023-01-29T03:45:24.499Z,89.66
2023-01-29T03:48:00.163Z,89.75
2023-01-29T03:51:00.994Z,89.37
2023-01-29T03:53:38.565Z,89.23
2023-01-29T03:56:21.168Z,88.02
2023-01-29T03:59:14.054Z,88.02
2023-01-29T04:01:44.720Z,88.31
2023-01-29T04:04:27.009Z,89.16
2023-01-29T04:06:55.147Z,89.41
2023-01-29T04:09:33.194Z,89.69
2023-01-29T04:12:05.828Z,89.25
2023-01-29T04:14:32.429Z,88.66
2023-01-29T04:17:00.899Z,89.43
2023-01-29T04:19:27.557Z,89.82
2023-01-29T04:22:02.295Z,87.77
2023-01-29T04:24:28.955Z,87.20
2023-01-29T04:27:27.390Z,87.34
2023-01-29T04:30:02.889Z,88.08
2023-01-29T04:32:33.672Z,88.17
2023-01-29T04:35:16.822Z,88.58
2023-01-29T04:38:08.611Z,87.62
2023-01-29T04:40:43.562Z,87.60
2023-01-29T04:43:43.319Z,88.18
2023-01-29T04:46:18.186Z,87.79
2023-01-29T04:49:00.713Z,86.84
2023-01-29T04:52:05.039Z,87.58
2023-01-29T04:54:36.548Z,87.08
2023-01-29T04:57:12.166Z,86.74
2023-01-29T04:59:51.080Z,85.81
2023-01-29T05:02:17.657Z,85.75
2023-01-29T05:04:44.450Z,85.86
2023-01-29T05:07:12.470Z,86.11
2023-01-29T05:09:39.199Z,86.33
2023-01-29T05:12:07.263Z,87.32
2023-01-29T05:14:34.363Z,87.18
2023-01-29T05:17:05.492Z,87.19
2023-01-29T05:19:32.042Z,87.26
2023-01-29T05:21:58.558Z,87.91
2023-01-29T05:24:26.118Z,86.55
2023-01-29T05:26:53.565Z,87.07
2023-01-29T05:29:21.012Z,86.87
2023-01-29T05:31:47.624Z,87.13
2023-01-29T05:34:14.264Z,86.57
2023-01-29T05:36:40.855Z,87.06
2023-01-29T05:39:07.336Z,88.03
2023-01-29T05:41:33.860Z,88.01
2023-01-29T05:44:00.428Z,88.46
2023-01-29T05:46:26.955Z,88.68
2023-01-29T05:48:53.521Z,88.22
2023-01-29T05:51:20.074Z,86.99
2023-01-29T05:53:46.571Z,87.07
2023-01-29T05:56:13.191Z,87.99
2023-01-29T05:58:39.691Z,88.26
2023-01-29T06:01:18.096Z,87.21
2023-01-29T06:03:46.978Z,86.81
2023-01-29T06:06:13.562Z,87.22
2023-01-29T06:08:40.459Z,86.29
2023-01-29T06:11:11.332Z,86.84
2023-01-29T06:13:38.028Z,87.08
2023-01-29T06:16:08.125Z,87.24
2023-01-29T06:18:35.809Z,87.41
2023-01-29T06:21:02.989Z,87.36
2023-01-29T06:23:29.780Z,87.86
2023-01-29T06:26:25.690Z,87.25
2023-01-29T06:28:52.215Z,86.93
2023-01-29T06:31:37.762Z,87.03
2023-01-29T06:34:05.346Z,87.39
2023-01-29T06:36:31.902Z,87.16
2023-01-29T06:38:58.549Z,87.34
2023-01-29T06:41:25.096Z,85.98
2023-01-29T06:43:51.680Z,86.57
2023-01-29T06:46:18.168Z,87.08
2023-01-29T06:48:44.685Z,87.22
2023-01-29T06:51:11.263Z,87.52
2023-01-29T06:53:38.537Z,87.85
2023-01-29T06:56:05.440Z,87.63
2023-01-29T06:58:31.994Z,87.28
2023-01-29T07:01:08.893Z,87.88
2023-01-29T07:03:35.631Z,87.54
2023-01-29T07:06:02.192Z,88.07
2023-01-29T07:08:28.693Z,87.53
2023-01-29T07:11:01.647Z,87.19
2023-01-29T07:13:28.303Z,87.35
2023-01-29T07:15:57.689Z,87.55
2023-01-29T07:18:24.282Z,87.96
2023-01-29T07:20:50.887Z,87.59
2023-01-29T07:23:17.634Z,88.36
2023-01-29T07:25:44.173Z,88.04
2023-01-29T07:28:10.784Z,88.00
2023-01-29T07:30:37.280Z,88.27
2023-01-29T07:33:07.747Z,87.90
2023-01-29T07:35:41.392Z,87.30
2023-01-29T07:38:09.267Z,87.61
2023-01-29T07:40:35.786Z,87.65
2023-01-29T07:43:04.337Z,87.38
2023-01-29T07:45:33.690Z,87.13
2023-01-29T07:48:00.260Z,87.56
2023-01-29T07:50:26.940Z,87.36
2023-01-29T07:52:56.695Z,87.48
2023-01-29T07:55:23.534Z,87.51
2023-01-29T07:58:00.412Z,86.91
2023-01-29T08:00:27.542Z,87.17
2023-01-29T08:02:54.295Z,87.33
2023-01-29T08:05:20.892Z,87.43
2023-01-29T08:08:05.716Z,87.15
2023-01-29T08:10:33.123Z,86.90
2023-01-29T08:13:00.884Z,86.05
2023-01-29T08:15:27.636Z,85.66
2023-01-29T08:17:58.133Z,85.54
2023-01-29T08:20:25.043Z,85.29
2023-01-29T08:22:59.054Z,85.23
2023-01-29T08:25:25.865Z,85.73
2023-01-29T08:27:52.569Z,85.99
2023-01-29T08:30:19.138Z,84.71
2023-01-29T08:32:45.716Z,85.32
2023-01-29T08:35:12.302Z,85.34
2023-01-29T08:37:38.878Z,84.02
2023-01-29T08:40:05.938Z,85.04
2023-01-29T08:42:32.478Z,84.27
2023-01-29T08:44:59.083Z,84.76
2023-01-29T08:47:26.230Z,84.04
2023-01-29T08:49:53.569Z,84.84
2023-01-29T08:52:20.087Z,84.77
2023-01-29T08:54:46.703Z,84.50
2023-01-29T08:57:13.266Z,84.42
2023-01-29T08:59:39.855Z,83.85
2023-01-29T09:02:06.610Z,83.27
2023-01-29T09:04:33.178Z,82.93
2023-01-29T09:07:01.144Z,83.38
2023-01-29T09:09:27.748Z,83.15
2023-01-29T09:11:54.329Z,82.74
2023-01-29T09:14:20.846Z,82.92
2023-01-29T09:16:47.493Z,83.55
2023-01-29T09:19:14.035Z,83.42
2023-01-29T09:21:40.575Z,83.12
2023-01-29T09:24:07.267Z,82.93
2023-01-29T09:26:33.852Z,83.40
2023-01-29T09:29:00.401Z,83.15
2023-01-29T09:31:26.996Z,82.86
2023-01-29T09:33:53.883Z,83.61
2023-01-29T09:36:20.670Z,82.75
2023-01-29T09:38:47.247Z,83.03
2023-01-29T09:41:38.655Z,82.04
2023-01-29T09:44:13.232Z,82.71
2023-01-29T09:46:43.856Z,82.63
2023-01-29T09:49:22.682Z,82.16
2023-01-29T09:51:51.258Z,81.84
2023-01-29T09:54:33.091Z,81.97
2023-01-29T09:56:59.631Z,82.71
2023-01-29T09:59:27.636Z,81.65
2023-01-29T10:01:55.816Z,81.71
2023-01-29T10:04:41.419Z,81.80
2023-01-29T10:07:22.848Z,82.11
2023-01-29T10:10:18.940Z,81.83
2023-01-29T10:12:45.326Z,81.73
2023-01-29T10:15:30.780Z,80.98
2023-01-29T10:18:06.365Z,82.18
2023-01-29T10:20:51.681Z,81.72
2023-01-29T10:23:21.101Z,80.74
2023-01-29T10:25:47.623Z,81.46
2023-01-29T10:28:18.437Z,78.27
2023-01-29T10:30:50.353Z,78.20
2023-01-29T10:33:49.389Z,77.89
2023-01-29T10:36:47.740Z,78.09
2023-01-29T10:39:24.491Z,78.41
2023-01-29T10:42:12.963Z,76.96
2023-01-29T10:44:43.348Z,78.06
2023-01-29T10:47:40.941Z,78.93
2023-01-29T10:50:41.590Z,78.13
2023-01-29T10:53:32.732Z,78.84
2023-01-29T10:56:20.899Z,78.15
2023-01-29T10:58:53.185Z,77.88
2023-01-29T11:01:19.823Z,77.26
2023-01-29T11:03:46.519Z,77.78
2023-01-29T11:06:26.606Z,78.36
2023-01-29T11:08:54.414Z,78.26
2023-01-29T11:11:22.285Z,76.90
2023-01-29T11:13:57.372Z,77.52
2023-01-29T11:16:24.049Z,76.99
2023-01-29T11:18:55.603Z,77.65
2023-01-29T11:21:22.349Z,77.59
2023-01-29T11:23:49.121Z,77.72
2023-01-29T11:26:18.754Z,77.27
2023-01-29T11:28:46.670Z,76.87
2023-01-29T11:31:27.009Z,78.25
2023-01-29T11:34:01.210Z,76.71
2023-01-29T11:36:35.507Z,78.23
2023-01-29T11:39:13.559Z,77.59
2023-01-29T11:41:44.796Z,78.45
2023-01-29T11:44:19.083Z,77.86
2023-01-29T11:46:45.708Z,78.07
2023-01-29T11:49:33.039Z,79.05
2023-01-29T11:52:01.213Z,78.39
2023-01-29T11:54:30.118Z,77.03
2023-01-29T11:56:56.776Z,77.39
2023-01-29T11:59:36.730Z,78.83
2023-01-29T12:02:23.591Z,78.44
2023-01-29T12:04:50.185Z,77.50
2023-01-29T12:07:17.560Z,78.38
2023-01-29T12:09:55.134Z,78.48
2023-01-29T12:12:36.958Z,77.57
2023-01-29T12:15:23.679Z,78.71
2023-01-29T12:18:04.190Z,78.99
2023-01-29T12:20:35.289Z,78.28
2023-01-29T12:23:25.291Z,78.42
2023-01-29T12:26:05.231Z,78.38
2023-01-29T12:28:55.464Z,78.79
2023-01-29T12:31:42.371Z,78.56
2023-01-29T12:34:47.326Z,78.44
2023-01-29T12:37:19.333Z,78.17
2023-01-29T12:39:45.882Z,77.28
2023-01-29T12:42:22.944Z,77.96
2023-01-29T12:44:59.751Z,78.68
2023-01-29T12:47:39.031Z,78.55
2023-01-29T12:50:07.840Z,77.59
2023-01-29T12:52:38.421Z,78.52
2023-01-29T12:55:13.858Z,77.81
2023-01-29T12:57:42.501Z,75.46
2023-01-29T13:00:15.065Z,78.02
2023-01-29T13:03:15.584Z,77.42
2023-01-29T13:05:47.399Z,77.20
2023-01-29T13:08:23.355Z,78.67
2023-01-29T13:10:51.160Z,77.61
2023-01-29T13:13:33.235Z,79.09
2023-01-29T13:15:59.777Z,77.65
2023-01-29T13:18:55.656Z,78.44
2023-01-29T13:21:24.359Z,78.25
2023-01-29T13:24:00.213Z,77.58
2023-01-29T13:26:27.054Z,77.41
2023-01-29T13:28:53.579Z,77.17
2023-01-29T13:31:29.791Z,78.35
2023-01-29T13:34:15.737Z,77.96
2023-01-29T13:36:45.738Z,77.74
2023-01-29T13:39:35.576Z,78.84
2023-01-29T13:42:03.671Z,79.27
2023-01-29T13:44:34.597Z,79.87
2023-01-29T13:47:03.308Z,79.25
2023-01-29T13:49:38.892Z,78.89
2023-01-29T13:52:21.506Z,78.66
2023-01-29T13:54:57.327Z,78.90
2023-01-29T13:57:45.629Z,79.01
2023-01-29T14:00:21.258Z,78.24
2023-01-29T14:02:47.810Z,78.79
2023-01-29T14:05:29.335Z,78.72
2023-01-29T14:08:02.206Z,78.53
2023-01-29T14:10:30.010Z,77.19
2023-01-29T14:13:18.405Z,77.87
2023-01-29T14:15:45.738Z,77.55
2023-01-29T14:18:12.173Z,77.75
2023-01-29T14:20:50.650Z,77.93
2023-01-29T14:23:47.640Z,78.93
2023-01-29T14:26:24.626Z,78.40
2023-01-29T14:28:59.284Z,78.66
2023-01-29T14:31:47.358Z,79.31
2023-01-29T14:34:35.931Z,79.53
2023-01-29T14:37:23.735Z,78.71
2023-01-29T14:40:14.342Z,78.34
2023-01-29T14:42:45.183Z,78.58
2023-01-29T14:45:29.815Z,78.67
2023-01-29T14:47:57.025Z,78.68
2023-01-29T14:50:29.601Z,79.02
2023-01-29T14:53:17.768Z,78.39
2023-01-29T14:55:47.793Z,78.04
2023-01-29T14:58:19.943Z,77.91
2023-01-29T15:00:46.571Z,78.39
2023-01-29T15:03:22.367Z,78.67
2023-01-29T15:05:48.940Z,79.12
2023-01-29T15:08:23.600Z,78.90
2023-01-29T15:10:54.445Z,79.72
2023-01-29T15:13:35.503Z,79.38
2023-01-29T15:16:09.669Z,79.27
2023-01-29T15:18:40.729Z,79.61
2023-01-29T15:21:16.953Z,79.58
2023-01-29T15:23:43.981Z,79.28
2023-01-29T15:26:21.204Z,79.05
2023-01-29T15:32:28.591Z,80.11
2023-01-29T15:34:55.768Z,80.01
2023-01-29T15:37:33.361Z,80.40
2023-01-29T15:40:00.192Z,80.35
2023-01-29T15:42:30.366Z,80.39
2023-01-29T15:44:56.918Z,80.20
2023-01-29T15:47:26.018Z,80.75
2023-01-29T15:49:52.673Z,80.66
2023-01-29T15:52:29.823Z,80.50
2023-01-29T15:54:56.810Z,79.97
2023-01-29T15:57:29.456Z,80.01
2023-01-29T15:59:56.844Z,80.81
2023-01-29T16:02:26.404Z,81.38
2023-01-29T16:04:53.024Z,81.16
2023-01-29T16:07:19.558Z,81.68
2023-01-29T16:09:46.083Z,80.83
2023-01-29T16:12:12.632Z,79.88
2023-01-29T16:14:39.209Z,80.32
2023-01-29T16:17:30.784Z,80.23
2023-01-29T16:20:01.881Z,79.94
2023-01-29T16:22:33.751Z,80.45
2023-01-29T16:25:08.480Z,80.24
2023-01-29T16:27:34.987Z,79.54
2023-01-29T16:30:01.615Z,80.42
2023-01-29T16:32:29.586Z,80.41
2023-01-29T16:34:57.653Z,80.73
2023-01-29T16:37:24.184Z,80.66
2023-01-29T16:39:51.032Z,81.30
2023-01-29T16:42:17.542Z,81.32
2023-01-29T16:45:02.462Z,81.36
2023-01-29T16:47:39.014Z,81.50
2023-01-29T16:50:11.812Z,81.77
2023-01-29T16:52:38.393Z,81.48
2023-01-29T16:55:20.434Z,81.74
2023-01-29T16:57:52.646Z,81.34
2023-01-29T17:00:24.648Z,81.82
2023-01-29T17:02:53.080Z,81.45
2023-01-29T17:05:26.406Z,81.79
2023-01-29T17:07:52.922Z,82.49
2023-01-29T17:10:19.891Z,82.68
2023-01-29T17:12:53.274Z,82.10
2023-01-29T17:15:31.313Z,82.40
2023-01-29T17:17:57.898Z,82.65
2023-01-29T17:20:24.755Z,82.46
2023-01-29T17:22:51.384Z,82.36
2023-01-29T17:25:18.484Z,81.85
2023-01-29T17:27:45.223Z,82.73
2023-01-29T17:30:15.942Z,82.51
2023-01-29T17:32:44.828Z,81.98
2023-01-29T17:35:14.943Z,81.35
2023-01-29T17:37:42.040Z,82.41
2023-01-29T17:40:17.462Z,82.42
2023-01-29T17:42:44.535Z,83.09
2023-01-29T17:45:11.164Z,83.38
2023-01-29T17:47:37.881Z,83.00
2023-01-29T17:50:30.369Z,83.46
2023-01-29T17:52:56.951Z,82.92
2023-01-29T17:55:23.541Z,82.66
2023-01-29T17:57:50.108Z,83.43
2023-01-29T18:00:17.754Z,82.69
2023-01-29T18:02:44.299Z,82.81
2023-01-29T18:05:11.641Z,83.24
2023-01-29T18:07:38.671Z,82.74
2023-01-29T18:10:05.687Z,82.90
2023-01-29T18:12:32.244Z,83.69
2023-01-29T18:14:58.784Z,83.30
2023-01-29T18:17:25.525Z,83.68
2023-01-29T18:19:52.030Z,83.30
2023-01-29T18:22:18.513Z,84.11
2023-01-29T18:24:45.081Z,83.16
2023-01-29T18:27:11.775Z,83.27
2023-01-29T18:29:38.348Z,83.42
2023-01-29T18:32:05.160Z,83.21
2023-01-29T18:34:31.764Z,83.56
2023-01-29T18:36:58.253Z,83.45
2023-01-29T18:39:24.822Z,83.32
2023-01-29T18:41:51.710Z,83.52
2023-01-29T18:44:22.985Z,83.10
2023-01-29T18:46:49.685Z,84.54
2023-01-29T18:49:16.303Z,83.68
2023-01-29T18:51:46.010Z,83.47
2023-01-29T18:54:15.358Z,83.22
2023-01-29T18:57:04.008Z,83.46
2023-01-29T18:59:28.390Z,83.07
2023-01-29T19:01:58.172Z,83.87
2023-01-29T19:04:24.795Z,83.21
2023-01-29T19:06:51.384Z,84.37
2023-01-29T19:09:25.721Z,83.97
2023-01-29T19:11:52.350Z,83.64
2023-01-29T19:14:18.953Z,83.49
2023-01-29T19:16:47.870Z,83.67
2023-01-29T19:19:14.691Z,83.13
2023-01-29T19:21:43.851Z,83.35
2023-01-29T19:24:12.592Z,84.10
2023-01-29T19:26:40.485Z,83.35
2023-01-29T19:29:09.300Z,83.54
2023-01-29T19:31:41.955Z,83.09
2023-01-29T19:34:11.802Z,82.93
2023-01-29T19:36:38.429Z,83.39
2023-01-29T19:39:08.060Z,82.98
2023-01-29T19:41:34.762Z,83.71
2023-01-29T19:44:01.382Z,83.36
2023-01-29T19:46:27.979Z,83.47
2023-01-29T19:48:54.589Z,83.84
2023-01-29T19:51:23.659Z,84.40
2023-01-29T19:53:51.298Z,83.92
2023-01-29T19:56:21.306Z,84.46
2023-01-29T19:58:55.505Z,84.15
2023-01-29T20:01:24.919Z,84.15
2023-01-29T20:03:51.717Z,83.99
2023-01-29T20:06:19.615Z,83.49
2023-01-29T20:08:48.357Z,83.24
2023-01-29T20:11:15.812Z,83.04
2023-01-29T20:13:42.929Z,83.95
2023-01-29T20:16:16.185Z,84.54
2023-01-29T20:18:46.239Z,83.54
2023-01-29T20:21:19.659Z,83.57
2023-01-29T20:23:49.713Z,83.47
2023-01-29T20:26:16.866Z,83.90
2023-01-29T20:28:58.679Z,83.22
2023-01-29T20:31:36.957Z,83.63
2023-01-29T20:34:22.901Z,83.29
2023-01-29T20:36:55.456Z,84.10
2023-01-29T20:39:22.264Z,83.88
2023-01-29T20:41:52.598Z,83.95
2023-01-29T20:44:19.231Z,84.50
2023-01-29T20:46:49.061Z,83.93
2023-01-29T20:49:24.722Z,83.62
2023-01-29T20:51:54.363Z,83.82
2023-01-29T20:54:26.544Z,84.01
2023-01-29T20:56:56.255Z,84.21
2023-01-29T20:59:28.794Z,83.82
2023-01-29T21:01:58.106Z,84.09
2023-01-29T21:04:51.475Z,83.95
2023-01-29T21:07:18.130Z,83.71
2023-01-29T21:09:52.351Z,83.19
2023-01-29T21:12:25.231Z,83.79
2023-01-29T21:14:52.058Z,84.04
2023-01-29T21:17:28.053Z,84.68
2023-01-29T21:19:59.148Z,84.48
2023-01-29T21:22:26.293Z,85.00
2023-01-29T21:24:54.530Z,84.70
2023-01-29T21:27:21.260Z,84.72
2023-01-29T21:29:48.007Z,84.82
2023-01-29T21:32:14.744Z,84.41
2023-01-29T21:34:41.863Z,84.52
2023-01-29T21:37:08.689Z,84.90
2023-01-29T21:39:41.644Z,85.25
2023-01-29T21:42:08.542Z,85.47
2023-01-29T21:44:37.530Z,85.50
2023-01-29T21:47:07.182Z,84.93
2023-01-29T21:49:34.088Z,85.13
2023-01-29T21:52:01.748Z,85.48
2023-01-29T21:54:31.398Z,85.73
2023-01-29T21:56:58.050Z,85.82
2023-01-29T21:59:24.666Z,85.71
2023-01-29T22:01:51.596Z,85.44
2023-01-29T22:04:18.279Z,85.17
2023-01-29T22:06:44.931Z,85.43
2023-01-29T22:09:11.623Z,85.70
2023-01-29T22:11:38.382Z,84.96
2023-01-29T22:14:04.977Z,85.48
2023-01-29T22:16:31.592Z,85.44
2023-01-29T22:18:58.342Z,85.38
2023-01-29T22:21:25.020Z,85.54
2023-01-29T22:23:51.737Z,85.32
2023-01-29T22:26:18.578Z,85.93
2023-01-29T22:28:45.270Z,85.59
2023-01-29T22:31:11.986Z,85.67
2023-01-29T22:33:38.648Z,85.37
2023-01-29T22:36:05.581Z,85.44
2023-01-29T22:38:32.311Z,86.03
2023-01-29T22:40:59.815Z,86.64
2023-01-29T22:43:26.893Z,85.96
2023-01-29T22:45:53.668Z,86.50
2023-01-29T22:48:20.400Z,86.03
2023-01-29T22:50:47.148Z,85.94
2023-01-29T22:53:13.847Z,85.53
2023-01-29T22:55:40.526Z,86.55
2023-01-29T22:58:07.292Z,85.73
2023-01-29T23:00:33.883Z,86.20
2023-01-29T23:03:00.525Z,85.70
2023-01-29T23:05:27.199Z,85.97
2023-01-29T23:07:53.767Z,85.68
2023-01-29T23:10:20.354Z,85.38
2023-01-29T23:12:47.003Z,85.68
2023-01-29T23:15:13.530Z,85.74
2023-01-29T23:17:40.077Z,85.84
2023-01-29T23:20:07.271Z,85.83
2023-01-29T23:22:33.870Z,86.40
2023-01-29T23:25:00.533Z,86.15
2023-01-29T23:27:27.106Z,86.13
2023-01-29T23:29:53.859Z,85.70
2023-01-29T23:32:20.543Z,85.98
2023-01-29T23:34:47.326Z,85.81
2023-01-29T23:37:14.006Z,86.37
2023-01-29T23:39:40.665Z,86.19
2023-01-29T23:42:07.353Z,85.68
2023-01-29T23:44:33.955Z,86.35
2023-01-29T23:47:00.621Z,86.87
2023-01-29T23:49:27.393Z,87.36
2023-01-29T23:51:53.975Z,86.89
2023-01-29T23:54:20.736Z,87.16
2023-01-29T23:56:47.386Z,86.83
2023-01-29T23:59:14.101Z,87.01
